Terminal Aerodrome Forecast
Issued by NWS Wilmington, OH

Current Version | Previous Version | Graphics & Text | Print | Product List | Glossary On
Versions: 1 2 3 4 5 6 7 8 9 10 11 12 13 14 15
000
FTUS41 KILN 302300
TAFDAY
TAF
KDAY 302340Z 0100/0124 21008KT P6SM BKN100
     FM010100 26007KT P6SM SCT100
     FM010900 28004KT 5SM BR FEW020
     FM011300 30006KT P6SM SCT030=

USA.gov is the U.S. government's official web portal to all federal, state and local government web resources and services.